sensor_id;sensor_type;location;lat;lon;timestamp;temperature;humidity
7496;DHT22;3789;47.064;15.482;2024-02-21T00:01:26;4.30;99.90
7496;DHT22;3789;47.064;15.482;2024-02-21T00:03:54;4.40;99.90
7496;DHT22;3789;47.064;15.482;2024-02-21T00:06:21;4.20;99.90
7496;DHT22;3789;47.064;15.482;2024-02-21T00:08:48;4.10;99.90
7496;DHT22;3789;47.064;15.482;2024-02-21T00:11:16;4.00;99.90
7496;DHT22;3789;47.064;15.482;2024-02-21T00:13:44;4.00;99.90
7496;DHT22;3789;47.064;15.482;2024-02-21T00:16:11;4.20;99.90
7496;DHT22;3789;47.064;15.482;2024-02-21T00:18:38;4.40;99.90
7496;DHT22;3789;47.064;15.482;2024-02-21T00:21:06;4.30;99.90
7496;DHT22;3789;47.064;15.482;2024-02-21T00:23:33;4.10;99.90
7496;DHT22;3789;47.064;15.482;2024-02-21T00:26:00;4.10;99.90
7496;DHT22;3789;47.064;15.482;2024-02-21T00:28:28;4.10;99.90
7496;DHT22;3789;47.064;15.482;2024-02-21T00:30:55;4.20;99.90
7496;DHT22;3789;47.064;15.482;2024-02-21T00:33:22;4.20;99.90
7496;DHT22;3789;47.064;15.482;2024-02-21T00:35:50;4.30;99.90
7496;DHT22;3789;47.064;15.482;2024-02-21T00:38:17;4.30;99.90
7496;DHT22;3789;47.064;15.482;2024-02-21T00:40:45;4.30;99.90
7496;DHT22;3789;47.064;15.482;2024-02-21T00:43:12;4.30;99.90
7496;DHT22;3789;47.064;15.482;2024-02-21T00:45:40;4.30;99.90
7496;DHT22;3789;47.064;15.482;2024-02-21T00:48:07;4.30;99.90
7496;DHT22;3789;47.064;15.482;2024-02-21T00:50:35;4.40;99.90
7496;DHT22;3789;47.064;15.482;2024-02-21T00:53:04;4.40;99.90
7496;DHT22;3789;47.064;15.482;2024-02-21T00:55:32;4.40;99.90
7496;DHT22;3789;47.064;15.482;2024-02-21T00:57:59;4.40;99.90
7496;DHT22;3789;47.064;15.482;2024-02-21T01:00:27;4.40;99.90
7496;DHT22;3789;47.064;15.482;2024-02-21T01:02:54;4.40;99.90
7496;DHT22;3789;47.064;15.482;2024-02-21T01:09:27;4.50;99.90
7496;DHT22;3789;47.064;15.482;2024-02-21T01:11:55;4.30;99.90
7496;DHT22;3789;47.064;15.482;2024-02-21T01:14:22;4.10;99.90
7496;DHT22;3789;47.064;15.482;2024-02-21T01:16:50;4.00;99.90
7496;DHT22;3789;47.064;15.482;2024-02-21T01:19:18;3.90;99.90
7496;DHT22;3789;47.064;15.482;2024-02-21T01:21:45;3.80;99.90
7496;DHT22;3789;47.064;15.482;2024-02-21T01:24:12;3.80;99.90
7496;DHT22;3789;47.064;15.482;2024-02-21T01:26:41;3.90;99.90
7496;DHT22;3789;47.064;15.482;2024-02-21T01:29:09;4.10;99.90
7496;DHT22;3789;47.064;15.482;2024-02-21T01:31:36;4.10;99.90
7496;DHT22;3789;47.064;15.482;2024-02-21T01:34:03;4.10;99.90
7496;DHT22;3789;47.064;15.482;2024-02-21T01:36:30;4.00;99.90
7496;DHT22;3789;47.064;15.482;2024-02-21T01:38:57;3.90;99.90
7496;DHT22;3789;47.064;15.482;2024-02-21T01:41:25;4.00;99.90
7496;DHT22;3789;47.064;15.482;2024-02-21T01:43:52;4.20;99.90
7496;DHT22;3789;47.064;15.482;2024-02-21T01:46:19;4.10;99.90
7496;DHT22;3789;47.064;15.482;2024-02-21T01:48:47;4.40;99.90
7496;DHT22;3789;47.064;15.482;2024-02-21T01:51:15;4.30;99.90
7496;DHT22;3789;47.064;15.482;2024-02-21T01:53:43;3.90;99.90
7496;DHT22;3789;47.064;15.482;2024-02-21T01:56:12;3.70;99.90
7496;DHT22;3789;47.064;15.482;2024-02-21T01:58:42;3.70;99.90
7496;DHT22;3789;47.064;15.482;2024-02-21T02:01:10;3.70;99.90
7496;DHT22;3789;47.064;15.482;2024-02-21T02:03:37;3.70;99.90
7496;DHT22;3789;47.064;15.482;2024-02-21T02:06:05;3.90;99.90
7496;DHT22;3789;47.064;15.482;2024-02-21T02:08:35;4.00;99.90
7496;DHT22;3789;47.064;15.482;2024-02-21T02:11:03;3.60;99.90
7496;DHT22;3789;47.064;15.482;2024-02-21T02:13:31;3.50;99.90
7496;DHT22;3789;47.064;15.482;2024-02-21T02:15:58;3.50;99.90
7496;DHT22;3789;47.064;15.482;2024-02-21T02:18:26;3.50;99.90
7496;DHT22;3789;47.064;15.482;2024-02-21T02:20:53;3.50;99.90
7496;DHT22;3789;47.064;15.482;2024-02-21T02:23:31;3.50;99.90
7496;DHT22;3789;47.064;15.482;2024-02-21T02:25:59;3.60;99.90
7496;DHT22;3789;47.064;15.482;2024-02-21T02:28:28;3.60;99.90
7496;DHT22;3789;47.064;15.482;2024-02-21T02:30:55;3.70;99.90
7496;DHT22;3789;47.064;15.482;2024-02-21T02:33:23;3.90;99.90
7496;DHT22;3789;47.064;15.482;2024-02-21T02:35:52;3.80;99.90
7496;DHT22;3789;47.064;15.482;2024-02-21T02:38:28;3.70;99.90
7496;DHT22;3789;47.064;15.482;2024-02-21T02:40:58;3.80;99.90
7496;DHT22;3789;47.064;15.482;2024-02-21T02:43:27;3.80;99.90
7496;DHT22;3789;47.064;15.482;2024-02-21T02:45:56;3.80;99.90
7496;DHT22;3789;47.064;15.482;2024-02-21T02:48:26;3.70;99.90
7496;DHT22;3789;47.064;15.482;2024-02-21T02:50:54;3.70;99.90
7496;DHT22;3789;47.064;15.482;2024-02-21T02:53:23;3.70;99.90
7496;DHT22;3789;47.064;15.482;2024-02-21T02:55:54;3.70;99.90
7496;DHT22;3789;47.064;15.482;2024-02-21T02:58:25;3.70;99.90
7496;DHT22;3789;47.064;15.482;2024-02-21T03:00:52;3.60;99.90
7496;DHT22;3789;47.064;15.482;2024-02-21T03:03:21;3.50;99.90
7496;DHT22;3789;47.064;15.482;2024-02-21T03:05:52;3.70;99.90
7496;DHT22;3789;47.064;15.482;2024-02-21T03:08:23;3.70;99.90
7496;DHT22;3789;47.064;15.482;2024-02-21T03:10:51;3.50;99.90
7496;DHT22;3789;47.064;15.482;2024-02-21T03:13:22;3.50;99.90
7496;DHT22;3789;47.064;15.482;2024-02-21T03:15:50;3.50;99.90
7496;DHT22;3789;47.064;15.482;2024-02-21T03:18:23;3.40;99.90
7496;DHT22;3789;47.064;15.482;2024-02-21T03:20:57;3.50;99.90
7496;DHT22;3789;47.064;15.482;2024-02-21T03:23:26;3.70;99.90
7496;DHT22;3789;47.064;15.482;2024-02-21T03:25:55;3.70;99.90
7496;DHT22;3789;47.064;15.482;2024-02-21T03:28:25;3.60;99.90
7496;DHT22;3789;47.064;15.482;2024-02-21T03:30:56;3.60;99.90
7496;DHT22;3789;47.064;15.482;2024-02-21T03:33:27;3.50;99.90
7496;DHT22;3789;47.064;15.482;2024-02-21T03:35:57;3.40;99.90
7496;DHT22;3789;47.064;15.482;2024-02-21T03:38:29;3.50;99.90
7496;DHT22;3789;47.064;15.482;2024-02-21T03:41:07;3.50;99.90
7496;DHT22;3789;47.064;15.482;2024-02-21T03:43:37;3.40;99.90
7496;DHT22;3789;47.064;15.482;2024-02-21T03:46:10;3.40;99.90
7496;DHT22;3789;47.064;15.482;2024-02-21T03:48:39;3.40;99.90
7496;DHT22;3789;47.064;15.482;2024-02-21T03:51:16;3.50;99.90
7496;DHT22;3789;47.064;15.482;2024-02-21T03:53:44;3.50;99.90
7496;DHT22;3789;47.064;15.482;2024-02-21T03:56:15;3.60;99.90
7496;DHT22;3789;47.064;15.482;2024-02-21T03:58:49;3.50;99.90
7496;DHT22;3789;47.064;15.482;2024-02-21T04:01:19;3.50;99.90
7496;DHT22;3789;47.064;15.482;2024-02-21T04:04:07;3.50;99.90
7496;DHT22;3789;47.064;15.482;2024-02-21T04:06:45;3.20;99.90
7496;DHT22;3789;47.064;15.482;2024-02-21T04:09:18;3.10;99.90
7496;DHT22;3789;47.064;15.482;2024-02-21T04:11:47;2.90;99.90
7496;DHT22;3789;47.064;15.482;2024-02-21T04:14:18;2.90;99.90
7496;DHT22;3789;47.064;15.482;2024-02-21T04:16:47;2.80;99.90
7496;DHT22;3789;47.064;15.482;2024-02-21T04:19:21;2.90;99.90
7496;DHT22;3789;47.064;15.482;2024-02-21T04:21:51;2.90;99.90
7496;DHT22;3789;47.064;15.482;2024-02-21T04:24:21;3.10;99.90
7496;DHT22;3789;47.064;15.482;2024-02-21T04:26:53;3.20;99.90
7496;DHT22;3789;47.064;15.482;2024-02-21T04:29:22;3.30;99.90
7496;DHT22;3789;47.064;15.482;2024-02-21T04:31:52;3.40;99.90
7496;DHT22;3789;47.064;15.482;2024-02-21T04:34:26;3.50;99.90
7496;DHT22;3789;47.064;15.482;2024-02-21T04:37:07;3.60;99.90
7496;DHT22;3789;47.064;15.482;2024-02-21T04:39:35;3.60;99.90
7496;DHT22;3789;47.064;15.482;2024-02-21T04:42:04;3.60;99.90
7496;DHT22;3789;47.064;15.482;2024-02-21T04:44:33;3.70;99.90
7496;DHT22;3789;47.064;15.482;2024-02-21T04:47:03;3.80;99.90
7496;DHT22;3789;47.064;15.482;2024-02-21T04:49:33;3.70;99.90
7496;DHT22;3789;47.064;15.482;2024-02-21T04:52:12;3.70;99.90
7496;DHT22;3789;47.064;15.482;2024-02-21T04:54:42;3.70;99.90
7496;DHT22;3789;47.064;15.482;2024-02-21T04:57:21;3.60;99.90
7496;DHT22;3789;47.064;15.482;2024-02-21T04:59:52;3.70;99.90
7496;DHT22;3789;47.064;15.482;2024-02-21T05:02:22;3.60;99.90
7496;DHT22;3789;47.064;15.482;2024-02-21T05:04:52;3.50;99.90
7496;DHT22;3789;47.064;15.482;2024-02-21T05:07:28;3.50;99.90
7496;DHT22;3789;47.064;15.482;2024-02-21T05:09:57;3.50;99.90
7496;DHT22;3789;47.064;15.482;2024-02-21T05:12:28;3.60;99.90
7496;DHT22;3789;47.064;15.482;2024-02-21T05:15:03;3.60;99.90
7496;DHT22;3789;47.064;15.482;2024-02-21T05:17:33;3.40;99.90
7496;DHT22;3789;47.064;15.482;2024-02-21T05:20:02;3.30;99.90
7496;DHT22;3789;47.064;15.482;2024-02-21T05:22:32;3.20;99.90
7496;DHT22;3789;47.064;15.482;2024-02-21T05:25:02;3.10;99.90
7496;DHT22;3789;47.064;15.482;2024-02-21T05:27:37;3.10;99.90
7496;DHT22;3789;47.064;15.482;2024-02-21T05:30:23;3.20;99.90
7496;DHT22;3789;47.064;15.482;2024-02-21T05:33:09;3.30;99.90
7496;DHT22;3789;47.064;15.482;2024-02-21T05:35:41;3.30;99.90
7496;DHT22;3789;47.064;15.482;2024-02-21T05:38:17;3.30;99.90
7496;DHT22;3789;47.064;15.482;2024-02-21T05:40:50;3.40;99.90
7496;DHT22;3789;47.064;15.482;2024-02-21T05:43:26;3.50;99.90
7496;DHT22;3789;47.064;15.482;2024-02-21T05:46:18;3.60;99.90
7496;DHT22;3789;47.064;15.482;2024-02-21T05:48:49;3.70;99.90
7496;DHT22;3789;47.064;15.482;2024-02-21T05:51:24;3.60;99.90
7496;DHT22;3789;47.064;15.482;2024-02-21T05:53:53;3.50;99.90
7496;DHT22;3789;47.064;15.482;2024-02-21T05:56:22;3.40;99.90
7496;DHT22;3789;47.064;15.482;2024-02-21T05:58:53;3.30;99.90
7496;DHT22;3789;47.064;15.482;2024-02-21T06:01:29;3.30;99.90
7496;DHT22;3789;47.064;15.482;2024-02-21T06:04:04;3.40;99.90
7496;DHT22;3789;47.064;15.482;2024-02-21T06:06:33;3.40;99.90
7496;DHT22;3789;47.064;15.482;2024-02-21T06:09:02;3.30;99.90
7496;DHT22;3789;47.064;15.482;2024-02-21T06:11:35;3.30;99.90
7496;DHT22;3789;47.064;15.482;2024-02-21T06:14:19;3.30;99.90
7496;DHT22;3789;47.064;15.482;2024-02-21T06:16:53;3.30;99.90
7496;DHT22;3789;47.064;15.482;2024-02-21T06:19:25;3.40;99.90
7496;DHT22;3789;47.064;15.482;2024-02-21T06:21:56;3.40;99.90
7496;DHT22;3789;47.064;15.482;2024-02-21T06:24:26;3.50;99.90
7496;DHT22;3789;47.064;15.482;2024-02-21T06:26:56;3.60;99.90
7496;DHT22;3789;47.064;15.482;2024-02-21T06:29:25;3.80;99.90
7496;DHT22;3789;47.064;15.482;2024-02-21T06:31:52;3.90;99.90
7496;DHT22;3789;47.064;15.482;2024-02-21T06:34:21;4.00;99.90
7496;DHT22;3789;47.064;15.482;2024-02-21T06:36:51;4.20;99.90
7496;DHT22;3789;47.064;15.482;2024-02-21T06:39:21;4.30;99.90
7496;DHT22;3789;47.064;15.482;2024-02-21T06:41:53;4.40;99.90
7496;DHT22;3789;47.064;15.482;2024-02-21T06:44:29;4.90;99.90
7496;DHT22;3789;47.064;15.482;2024-02-21T06:47:01;5.90;99.90
7496;DHT22;3789;47.064;15.482;2024-02-21T06:49:39;7.30;99.90
7496;DHT22;3789;47.064;15.482;2024-02-21T06:52:12;8.60;99.90
7496;DHT22;3789;47.064;15.482;2024-02-21T06:55:04;8.60;99.10
7496;DHT22;3789;47.064;15.482;2024-02-21T06:57:34;7.80;99.40
7496;DHT22;3789;47.064;15.482;2024-02-21T07:00:04;7.30;99.90
7496;DHT22;3789;47.064;15.482;2024-02-21T07:02:49;6.90;99.90
7496;DHT22;3789;47.064;15.482;2024-02-21T07:05:19;6.50;99.90
7496;DHT22;3789;47.064;15.482;2024-02-21T07:07:49;6.20;99.90
7496;DHT22;3789;47.064;15.482;2024-02-21T07:10:22;6.20;99.90
7496;DHT22;3789;47.064;15.482;2024-02-21T07:12:53;6.20;99.90
7496;DHT22;3789;47.064;15.482;2024-02-21T07:15:23;6.10;99.90
7496;DHT22;3789;47.064;15.482;2024-02-21T07:17:53;6.00;99.90
7496;DHT22;3789;47.064;15.482;2024-02-21T07:20:23;6.20;99.90
7496;DHT22;3789;47.064;15.482;2024-02-21T07:22:52;6.80;99.90
7496;DHT22;3789;47.064;15.482;2024-02-21T07:25:26;7.70;99.90
7496;DHT22;3789;47.064;15.482;2024-02-21T07:27:59;8.10;99.90
7496;DHT22;3789;47.064;15.482;2024-02-21T07:30:30;8.60;99.90
7496;DHT22;3789;47.064;15.482;2024-02-21T07:32:58;8.50;99.90
7496;DHT22;3789;47.064;15.482;2024-02-21T07:35:37;8.20;99.90
7496;DHT22;3789;47.064;15.482;2024-02-21T07:38:09;7.90;99.90
7496;DHT22;3789;47.064;15.482;2024-02-21T07:40:41;7.50;99.90
7496;DHT22;3789;47.064;15.482;2024-02-21T07:43:12;6.90;99.90
7496;DHT22;3789;47.064;15.482;2024-02-21T07:45:57;6.50;99.90
7496;DHT22;3789;47.064;15.482;2024-02-21T07:48:35;6.20;99.90
7496;DHT22;3789;47.064;15.482;2024-02-21T07:51:05;6.00;99.90
7496;DHT22;3789;47.064;15.482;2024-02-21T07:53:38;6.00;99.90
7496;DHT22;3789;47.064;15.482;2024-02-21T07:56:21;6.20;99.90
7496;DHT22;3789;47.064;15.482;2024-02-21T07:58:49;6.70;99.90
7496;DHT22;3789;47.064;15.482;2024-02-21T08:01:22;7.60;99.90
7496;DHT22;3789;47.064;15.482;2024-02-21T08:03:51;9.10;99.90
7496;DHT22;3789;47.064;15.482;2024-02-21T08:06:27;9.90;99.90
7496;DHT22;3789;47.064;15.482;2024-02-21T08:08:56;10.10;97.70
7496;DHT22;3789;47.064;15.482;2024-02-21T08:11:26;9.40;99.00
7496;DHT22;3789;47.064;15.482;2024-02-21T08:13:57;8.90;99.50
7496;DHT22;3789;47.064;15.482;2024-02-21T08:16:28;8.60;99.90
7496;DHT22;3789;47.064;15.482;2024-02-21T08:19:05;8.50;99.90
7496;DHT22;3789;47.064;15.482;2024-02-21T08:21:34;8.40;99.90
7496;DHT22;3789;47.064;15.482;2024-02-21T08:24:03;8.30;99.90
7496;DHT22;3789;47.064;15.482;2024-02-21T08:26:34;8.00;99.90
7496;DHT22;3789;47.064;15.482;2024-02-21T08:29:05;7.60;99.90
7496;DHT22;3789;47.064;15.482;2024-02-21T08:31:33;7.40;99.90
7496;DHT22;3789;47.064;15.482;2024-02-21T08:34:05;7.30;99.90
7496;DHT22;3789;47.064;15.482;2024-02-21T08:36:35;7.30;99.90
7496;DHT22;3789;47.064;15.482;2024-02-21T08:39:06;7.30;99.90
7496;DHT22;3789;47.064;15.482;2024-02-21T08:41:38;7.30;99.90
7496;DHT22;3789;47.064;15.482;2024-02-21T08:44:25;7.20;99.90
7496;DHT22;3789;47.064;15.482;2024-02-21T08:46:55;7.20;99.90
7496;DHT22;3789;47.064;15.482;2024-02-21T08:49:25;7.30;99.90
7496;DHT22;3789;47.064;15.482;2024-02-21T08:52:05;7.30;99.90
7496;DHT22;3789;47.064;15.482;2024-02-21T08:54:34;7.30;99.90
7496;DHT22;3789;47.064;15.482;2024-02-21T08:57:03;7.20;99.90
7496;DHT22;3789;47.064;15.482;2024-02-21T08:59:32;7.20;99.90
7496;DHT22;3789;47.064;15.482;2024-02-21T09:02:01;7.10;99.90
7496;DHT22;3789;47.064;15.482;2024-02-21T09:04:32;7.10;99.90
7496;DHT22;3789;47.064;15.482;2024-02-21T09:07:10;7.10;99.90
7496;DHT22;3789;47.064;15.482;2024-02-21T09:09:42;7.10;99.90
7496;DHT22;3789;47.064;15.482;2024-02-21T09:12:14;7.10;99.90
7496;DHT22;3789;47.064;15.482;2024-02-21T09:14:44;7.20;99.90
7496;DHT22;3789;47.064;15.482;2024-02-21T09:17:16;7.30;99.90
7496;DHT22;3789;47.064;15.482;2024-02-21T09:19:49;7.40;99.90
7496;DHT22;3789;47.064;15.482;2024-02-21T09:22:18;7.60;99.90
7496;DHT22;3789;47.064;15.482;2024-02-21T09:24:47;7.60;99.90
7496;DHT22;3789;47.064;15.482;2024-02-21T09:27:24;7.50;99.90
7496;DHT22;3789;47.064;15.482;2024-02-21T09:29:55;7.50;99.90
7496;DHT22;3789;47.064;15.482;2024-02-21T09:32:25;7.50;99.90
7496;DHT22;3789;47.064;15.482;2024-02-21T09:34:55;7.60;99.90
7496;DHT22;3789;47.064;15.482;2024-02-21T09:37:29;7.90;99.90
7496;DHT22;3789;47.064;15.482;2024-02-21T09:40:01;8.00;99.50
7496;DHT22;3789;47.064;15.482;2024-02-21T09:42:41;8.20;99.40
7496;DHT22;3789;47.064;15.482;2024-02-21T09:45:23;8.30;98.80
7496;DHT22;3789;47.064;15.482;2024-02-21T09:51:15;8.20;99.10
7496;DHT22;3789;47.064;15.482;2024-02-21T09:53:43;8.20;98.30
7496;DHT22;3789;47.064;15.482;2024-02-21T09:56:26;8.40;99.50
7496;DHT22;3789;47.064;15.482;2024-02-21T09:58:53;8.40;98.20
7496;DHT22;3789;47.064;15.482;2024-02-21T10:01:23;8.30;97.10
7496;DHT22;3789;47.064;15.482;2024-02-21T10:04:02;8.30;97.90
7496;DHT22;3789;47.064;15.482;2024-02-21T10:06:38;8.50;98.90
7496;DHT22;3789;47.064;15.482;2024-02-21T10:09:08;8.50;98.00
7496;DHT22;3789;47.064;15.482;2024-02-21T10:11:39;8.70;97.60
7496;DHT22;3789;47.064;15.482;2024-02-21T10:14:12;8.80;98.10
7496;DHT22;3789;47.064;15.482;2024-02-21T10:16:43;9.00;98.10
7496;DHT22;3789;47.064;15.482;2024-02-21T10:19:19;9.00;97.70
7496;DHT22;3789;47.064;15.482;2024-02-21T10:22:07;9.00;96.70
7496;DHT22;3789;47.064;15.482;2024-02-21T10:24:37;8.90;98.00
7496;DHT22;3789;47.064;15.482;2024-02-21T10:27:10;8.90;97.10
7496;DHT22;3789;47.064;15.482;2024-02-21T10:29:50;8.80;97.70
7496;DHT22;3789;47.064;15.482;2024-02-21T10:32:21;9.00;97.70
7496;DHT22;3789;47.064;15.482;2024-02-21T10:35:00;9.10;97.80
7496;DHT22;3789;47.064;15.482;2024-02-21T10:37:33;9.30;97.80
7496;DHT22;3789;47.064;15.482;2024-02-21T10:40:06;9.40;97.90
7496;DHT22;3789;47.064;15.482;2024-02-21T10:42:38;9.50;97.80
7496;DHT22;3789;47.064;15.482;2024-02-21T10:45:07;9.50;97.80
7496;DHT22;3789;47.064;15.482;2024-02-21T10:47:38;9.40;97.20
7496;DHT22;3789;47.064;15.482;2024-02-21T10:50:21;9.20;97.10
7496;DHT22;3789;47.064;15.482;2024-02-21T10:52:56;9.10;97.10
7496;DHT22;3789;47.064;15.482;2024-02-21T10:56:04;9.30;98.40
7496;DHT22;3789;47.064;15.482;2024-02-21T10:58:54;9.50;98.30
7496;DHT22;3789;47.064;15.482;2024-02-21T11:01:29;9.80;97.50
7496;DHT22;3789;47.064;15.482;2024-02-21T11:04:15;9.80;96.60
7496;DHT22;3789;47.064;15.482;2024-02-21T11:06:44;9.70;96.60
7496;DHT22;3789;47.064;15.482;2024-02-21T11:09:13;9.80;97.10
7496;DHT22;3789;47.064;15.482;2024-02-21T11:11:49;9.80;97.90
7496;DHT22;3789;47.064;15.482;2024-02-21T11:14:20;9.90;97.10
7496;DHT22;3789;47.064;15.482;2024-02-21T11:16:51;9.90;97.10
7496;DHT22;3789;47.064;15.482;2024-02-21T11:19:25;9.90;97.20
7496;DHT22;3789;47.064;15.482;2024-02-21T11:21:58;9.90;97.50
7496;DHT22;3789;47.064;15.482;2024-02-21T11:24:33;9.70;96.70
7496;DHT22;3789;47.064;15.482;2024-02-21T11:27:22;9.80;97.30
7496;DHT22;3789;47.064;15.482;2024-02-21T11:29:59;9.80;97.00
7496;DHT22;3789;47.064;15.482;2024-02-21T11:32:28;10.00;97.30
7496;DHT22;3789;47.064;15.482;2024-02-21T11:35:07;10.30;96.10
7496;DHT22;3789;47.064;15.482;2024-02-21T11:37:40;10.50;95.40
7496;DHT22;3789;47.064;15.482;2024-02-21T11:40:12;10.80;95.70
7496;DHT22;3789;47.064;15.482;2024-02-21T11:42:39;10.90;94.90
7496;DHT22;3789;47.064;15.482;2024-02-21T11:45:10;11.20;93.80
7496;DHT22;3789;47.064;15.482;2024-02-21T11:47:42;11.30;93.60
7496;DHT22;3789;47.064;15.482;2024-02-21T11:50:12;11.30;92.80
7496;DHT22;3789;47.064;15.482;2024-02-21T11:52:48;11.40;93.20
7496;DHT22;3789;47.064;15.482;2024-02-21T11:55:17;11.40;92.50
7496;DHT22;3789;47.064;15.482;2024-02-21T11:57:48;11.40;91.70
7496;DHT22;3789;47.064;15.482;2024-02-21T12:00:27;11.30;91.70
7496;DHT22;3789;47.064;15.482;2024-02-21T12:02:56;11.20;92.20
7496;DHT22;3789;47.064;15.482;2024-02-21T12:05:32;11.20;92.30
7496;DHT22;3789;47.064;15.482;2024-02-21T12:08:00;11.20;92.20
7496;DHT22;3789;47.064;15.482;2024-02-21T12:10:29;11.20;92.10
7496;DHT22;3789;47.064;15.482;2024-02-21T12:13:11;11.30;92.50
7496;DHT22;3789;47.064;15.482;2024-02-21T12:15:47;11.40;92.30
7496;DHT22;3789;47.064;15.482;2024-02-21T12:18:19;11.50;92.40
7496;DHT22;3789;47.064;15.482;2024-02-21T12:20:48;11.50;92.60
7496;DHT22;3789;47.064;15.482;2024-02-21T12:23:20;11.60;93.10
7496;DHT22;3789;47.064;15.482;2024-02-21T12:25:47;11.80;93.20
7496;DHT22;3789;47.064;15.482;2024-02-21T12:28:14;11.90;91.80
7496;DHT22;3789;47.064;15.482;2024-02-21T12:30:53;12.00;92.10
7496;DHT22;3789;47.064;15.482;2024-02-21T12:33:23;12.20;92.70
7496;DHT22;3789;47.064;15.482;2024-02-21T12:35:50;12.30;92.20
7496;DHT22;3789;47.064;15.482;2024-02-21T12:38:20;12.20;91.30
7496;DHT22;3789;47.064;15.482;2024-02-21T12:40:49;12.10;90.70
7496;DHT22;3789;47.064;15.482;2024-02-21T12:43:27;12.00;90.30
7496;DHT22;3789;47.064;15.482;2024-02-21T12:45:58;12.00;90.60
7496;DHT22;3789;47.064;15.482;2024-02-21T12:48:35;12.10;90.50
7496;DHT22;3789;47.064;15.482;2024-02-21T12:51:03;12.10;90.60
7496;DHT22;3789;47.064;15.482;2024-02-21T12:53:31;12.10;90.70
7496;DHT22;3789;47.064;15.482;2024-02-21T12:56:02;12.30;90.90
7496;DHT22;3789;47.064;15.482;2024-02-21T12:58:32;12.40;90.90
7496;DHT22;3789;47.064;15.482;2024-02-21T13:00:59;12.50;90.80
7496;DHT22;3789;47.064;15.482;2024-02-21T13:03:27;12.50;90.60
7496;DHT22;3789;47.064;15.482;2024-02-21T13:05:58;12.40;89.20
7496;DHT22;3789;47.064;15.482;2024-02-21T13:08:26;12.40;89.60
7496;DHT22;3789;47.064;15.482;2024-02-21T13:10:53;12.40;89.20
7496;DHT22;3789;47.064;15.482;2024-02-21T13:13:21;12.40;89.50
7496;DHT22;3789;47.064;15.482;2024-02-21T13:15:49;12.50;86.80
7496;DHT22;3789;47.064;15.482;2024-02-21T13:18:16;12.60;87.70
7496;DHT22;3789;47.064;15.482;2024-02-21T13:20:44;12.60;88.40
7496;DHT22;3789;47.064;15.482;2024-02-21T13:23:11;12.70;88.40
7496;DHT22;3789;47.064;15.482;2024-02-21T13:25:39;12.60;87.40
7496;DHT22;3789;47.064;15.482;2024-02-21T13:28:07;12.60;88.70
7496;DHT22;3789;47.064;15.482;2024-02-21T13:30:36;12.60;87.80
7496;DHT22;3789;47.064;15.482;2024-02-21T13:33:03;12.60;86.20
7496;DHT22;3789;47.064;15.482;2024-02-21T13:35:32;12.60;85.40
7496;DHT22;3789;47.064;15.482;2024-02-21T13:38:00;12.50;85.80
7496;DHT22;3789;47.064;15.482;2024-02-21T13:40:27;12.50;87.60
7496;DHT22;3789;47.064;15.482;2024-02-21T13:42:54;12.60;88.30
7496;DHT22;3789;47.064;15.482;2024-02-21T13:45:22;12.70;88.20
7496;DHT22;3789;47.064;15.482;2024-02-21T13:47:50;12.80;85.70
7496;DHT22;3789;47.064;15.482;2024-02-21T13:50:18;12.90;85.50
7496;DHT22;3789;47.064;15.482;2024-02-21T13:52:46;13.00;87.20
7496;DHT22;3789;47.064;15.482;2024-02-21T13:55:13;12.90;86.10
7496;DHT22;3789;47.064;15.482;2024-02-21T13:57:40;12.80;87.80
7496;DHT22;3789;47.064;15.482;2024-02-21T14:00:11;12.60;86.70
7496;DHT22;3789;47.064;15.482;2024-02-21T14:02:38;12.30;86.60
7496;DHT22;3789;47.064;15.482;2024-02-21T14:05:07;12.10;87.50
7496;DHT22;3789;47.064;15.482;2024-02-21T14:07:38;12.00;87.00
7496;DHT22;3789;47.064;15.482;2024-02-21T14:10:08;11.90;88.00
7496;DHT22;3789;47.064;15.482;2024-02-21T14:12:36;11.90;88.40
7496;DHT22;3789;47.064;15.482;2024-02-21T14:15:05;11.90;87.70
7496;DHT22;3789;47.064;15.482;2024-02-21T14:17:33;11.80;88.90
7496;DHT22;3789;47.064;15.482;2024-02-21T14:20:01;11.80;88.40
7496;DHT22;3789;47.064;15.482;2024-02-21T14:22:28;11.80;89.50
7496;DHT22;3789;47.064;15.482;2024-02-21T14:24:56;11.90;90.70
7496;DHT22;3789;47.064;15.482;2024-02-21T14:27:23;11.90;89.70
7496;DHT22;3789;47.064;15.482;2024-02-21T14:29:50;11.90;89.80
7496;DHT22;3789;47.064;15.482;2024-02-21T14:32:18;11.90;89.50
7496;DHT22;3789;47.064;15.482;2024-02-21T14:34:46;11.90;90.10
7496;DHT22;3789;47.064;15.482;2024-02-21T14:37:13;11.90;90.00
7496;DHT22;3789;47.064;15.482;2024-02-21T14:39:41;11.80;88.80
7496;DHT22;3789;47.064;15.482;2024-02-21T14:42:08;11.80;89.80
7496;DHT22;3789;47.064;15.482;2024-02-21T14:44:38;11.90;90.20
7496;DHT22;3789;47.064;15.482;2024-02-21T14:47:05;11.80;89.50
7496;DHT22;3789;47.064;15.482;2024-02-21T14:49:33;11.80;90.10
7496;DHT22;3789;47.064;15.482;2024-02-21T14:52:01;11.90;90.20
7496;DHT22;3789;47.064;15.482;2024-02-21T14:54:29;11.70;89.80
7496;DHT22;3789;47.064;15.482;2024-02-21T14:56:57;11.60;89.50
7496;DHT22;3789;47.064;15.482;2024-02-21T14:59:24;11.80;90.20
7496;DHT22;3789;47.064;15.482;2024-02-21T15:02:00;11.80;90.00
7496;DHT22;3789;47.064;15.482;2024-02-21T15:04:28;11.90;89.10
7496;DHT22;3789;47.064;15.482;2024-02-21T15:06:55;12.00;88.40
7496;DHT22;3789;47.064;15.482;2024-02-21T15:09:22;12.00;90.20
7496;DHT22;3789;47.064;15.482;2024-02-21T15:11:50;12.00;89.40
7496;DHT22;3789;47.064;15.482;2024-02-21T15:14:17;12.00;90.40
7496;DHT22;3789;47.064;15.482;2024-02-21T15:16:47;11.80;89.40
7496;DHT22;3789;47.064;15.482;2024-02-21T15:19:14;11.70;90.00
7496;DHT22;3789;47.064;15.482;2024-02-21T15:21:42;11.70;89.90
7496;DHT22;3789;47.064;15.482;2024-02-21T15:24:10;11.70;89.10
7496;DHT22;3789;47.064;15.482;2024-02-21T15:26:37;11.70;88.80
7496;DHT22;3789;47.064;15.482;2024-02-21T15:29:04;11.80;88.30
7496;DHT22;3789;47.064;15.482;2024-02-21T15:31:32;11.80;88.10
7496;DHT22;3789;47.064;15.482;2024-02-21T15:33:59;12.00;88.60
7496;DHT22;3789;47.064;15.482;2024-02-21T15:36:26;12.00;88.30
7496;DHT22;3789;47.064;15.482;2024-02-21T15:38:55;12.00;87.30
7496;DHT22;3789;47.064;15.482;2024-02-21T15:41:22;11.80;86.90
7496;DHT22;3789;47.064;15.482;2024-02-21T15:43:50;11.90;87.90
7496;DHT22;3789;47.064;15.482;2024-02-21T15:46:17;11.90;87.80
7496;DHT22;3789;47.064;15.482;2024-02-21T15:48:44;11.80;87.70
7496;DHT22;3789;47.064;15.482;2024-02-21T15:51:13;11.50;87.70
7496;DHT22;3789;47.064;15.482;2024-02-21T15:53:40;11.60;88.30
7496;DHT22;3789;47.064;15.482;2024-02-21T15:56:13;11.70;87.90
7496;DHT22;3789;47.064;15.482;2024-02-21T15:58:42;11.70;87.20
7496;DHT22;3789;47.064;15.482;2024-02-21T16:01:10;11.70;87.70
7496;DHT22;3789;47.064;15.482;2024-02-21T16:03:40;11.60;88.00
7496;DHT22;3789;47.064;15.482;2024-02-21T16:06:08;11.60;89.80
7496;DHT22;3789;47.064;15.482;2024-02-21T16:08:36;11.50;90.00
7496;DHT22;3789;47.064;15.482;2024-02-21T16:11:13;11.50;89.20
7496;DHT22;3789;47.064;15.482;2024-02-21T16:13:45;11.30;89.80
7496;DHT22;3789;47.064;15.482;2024-02-21T16:16:17;11.30;90.20
7496;DHT22;3789;47.064;15.482;2024-02-21T16:18:44;11.00;90.50
7496;DHT22;3789;47.064;15.482;2024-02-21T16:21:14;10.70;90.90
7496;DHT22;3789;47.064;15.482;2024-02-21T16:23:42;10.40;91.20
7496;DHT22;3789;47.064;15.482;2024-02-21T16:26:09;10.60;91.30
7496;DHT22;3789;47.064;15.482;2024-02-21T16:28:36;10.80;90.90